Terminal Aerodrome Forecast
Issued by NWS

Home | Current Version | Previous Version | Text Only | Print | Product List | Glossary On
Versions: 1 2 3 4 5 6 7 8 9 10 11 12 13 14 15 16 17 18 19 20 21 22 23 24 25 26 27 28 29 30 31 32 33 34 35 36 37 38 39 40 41 42 43 44 45 46 47 48 49 50
000
FTUS45 KBOU 030201 AAA
TAFAPA
TAF AMD
KAPA 030201Z 0302/0324 05011KT P6SM SCT100 BKN200
     FM030400 15008KT P6SM SCT100 BKN200
     FM030600 21008KT P6SM SCT200
     FM031700 06007KT P6SM SCT150 SCT200
     FM032100 15009KT P6SM VCTS SCT080CB BKN150
      TEMPO 0321/0324 VRB15G30KT -TSRA BKN060CB=

USA.gov is the U.S. government's official web portal to all federal, state and local government web resources and services.